Time;durP1;ratioP1;P1;durP2;ratioP2;P2;SDS_P1;SDS_P2;PMS_P1;PMS_P2;Temp;Humidity;BMP_temperature;BMP_pressure;BME280_temperature;BME280_humidity;BME280_pressure;Samples;Min_cycle;Max_cycle;Signal;HPM_P1;HPM_P2
2021/09/27 00:00:55;;;;;;;2.65;0.68;;;;;;;14.08;66.77;100954.91;5103496;28;20078;-64
2021/09/27 00:03:21;;;;;;;1.45;0.70;;;;;;;14.06;66.98;100956.69;5103507;28;20020;-64
2021/09/27 00:05:47;;;;;;;2.13;0.90;;;;;;;13.95;67.31;100969.88;5103606;28;20465;-65
2021/09/27 00:08:13;;;;;;;5.47;1.60;;;;;;;13.63;68.63;100958.09;5103382;28;20027;-64
2021/09/27 00:10:43;;;;;;;6.38;1.33;;;;;;;13.75;68.22;100972.75;5103463;28;20026;-64
2021/09/27 00:13:09;;;;;;;4.13;1.15;;;;;;;13.77;67.95;100965.75;5103315;28;20024;-64
2021/09/27 00:15:42;;;;;;;6.82;1.73;;;;;;;13.69;68.33;100962.41;5103313;28;20046;-64
2021/09/27 00:28:15;;;;;;;2.92;1.35;;;;;;;13.78;67.18;100959.69;5103956;28;20090;-64
2021/09/27 00:30:42;;;;;;;5.28;1.42;;;;;;;13.50;68.50;100959.97;5103863;28;20035;-64
2021/09/27 00:33:09;;;;;;;1.17;0.70;;;;;;;13.75;67.29;100955.34;5103753;28;20028;-65
2021/09/27 00:35:36;;;;;;;4.95;1.35;;;;;;;13.60;68.10;100959.03;5103943;28;20028;-65
2021/09/27 00:38:03;;;;;;;5.40;0.80;;;;;;;13.71;67.50;100958.00;5103560;28;20036;-64
2021/09/27 00:40:33;;;;;;;5.93;1.55;;;;;;;13.59;67.95;100956.44;5103797;28;20043;-64
2021/09/27 00:42:59;;;;;;;5.75;1.83;;;;;;;13.49;68.31;100956.50;5103529;28;20039;-64
2021/09/27 00:45:30;;;;;;;4.93;1.00;;;;;;;13.56;67.72;100946.88;5103956;28;20024;-64
2021/09/27 00:47:55;;;;;;;4.43;2.10;;;;;;;13.51;68.20;100951.31;5103603;28;20031;-66
2021/09/27 00:50:25;;;;;;;5.30;1.70;;;;;;;13.40;68.42;100948.78;5103718;28;20032;-63
2021/09/27 00:52:52;;;;;;;3.13;0.57;;;;;;;13.76;67.26;100943.16;5103547;28;20031;-64
2021/09/27 00:55:22;;;;;;;4.35;1.92;;;;;;;13.53;67.91;100940.84;5103434;28;20088;-64
2021/09/27 00:57:48;;;;;;;4.90;1.20;;;;;;;13.67;67.39;100949.38;5103621;28;20104;-64
2021/09/27 01:00:17;;;;;;;4.90;1.60;;;;;;;13.64;67.42;100944.19;5103516;28;20027;-64
2021/09/27 01:02:43;;;;;;;5.22;1.40;;;;;;;13.47;68.15;100936.53;5103465;28;20045;-63
2021/09/27 01:05:11;;;;;;;1.63;0.73;;;;;;;13.65;67.49;100932.00;5103376;28;20102;-64
2021/09/27 01:08:05;;;;;;;4.07;1.58;;;;;;;13.53;68.06;100935.63;5103368;28;20026;-65
2021/09/27 01:10:52;;;;;;;5.07;1.42;;;;;;;13.53;67.61;100936.47;5102659;28;20077;-64
2021/09/27 01:13:17;;;;;;;3.78;1.20;;;;;;;13.44;68.07;100934.81;5085155;28;20020;-65
2021/09/27 01:15:55;;;;;;;2.28;0.82;;;;;;;13.56;67.59;100935.59;5103159;28;20549;-64
2021/09/27 01:18:23;;;;;;;7.68;1.77;;;;;;;13.49;67.98;100934.78;5103260;28;20020;-64
2021/09/27 01:21:05;;;;;;;2.17;1.00;;;;;;;13.71;67.41;100931.91;5103215;28;20024;-66
2021/09/27 01:23:55;;;;;;;9.45;2.38;;;;;;;13.39;68.12;100932.28;5102921;28;20044;-64
2021/09/27 01:26:49;;;;;;;7.15;1.30;;;;;;;13.44;67.97;100934.81;5103153;28;20020;-64
2021/09/27 01:29:52;;;;;;;8.35;1.50;;;;;;;13.26;68.68;100928.94;5103227;28;20050;-64
2021/09/27 01:32:24;;;;;;;4.43;1.77;;;;;;;13.55;67.83;100932.13;5103007;28;20035;-64
2021/09/27 01:35:01;;;;;;;2.38;0.77;;;;;;;13.43;68.23;100933.13;5103369;28;20024;-64
2021/09/27 01:37:55;;;;;;;4.13;1.52;;;;;;;13.30;68.74;100921.97;5102871;28;20032;-64
2021/09/27 01:40:55;;;;;;;8.93;1.90;;;;;;;13.31;68.90;100928.00;5103220;28;20020;-64
2021/09/27 01:43:26;;;;;;;2.47;0.70;;;;;;;13.51;68.26;100933.06;5103009;28;20110;-65
2021/09/27 01:46:04;;;;;;;8.73;1.73;;;;;;;13.29;68.82;100917.59;5084927;28;20416;-64
2021/09/27 01:49:01;;;;;;;3.60;1.35;;;;;;;13.39;68.65;100923.59;5103180;28;20024;-65
2021/09/27 01:51:51;;;;;;;6.18;1.40;;;;;;;13.22;69.46;100923.78;5102733;28;20035;-64
2021/09/27 01:54:35;;;;;;;4.18;1.85;;;;;;;13.28;69.03;100923.72;5102922;28;20039;-64
2021/09/27 01:57:22;;;;;;;4.30;1.08;;;;;;;13.22;69.47;100931.59;5102890;28;20016;-65
2021/09/27 02:00:09;;;;;;;6.03;1.25;;;;;;;13.51;68.38;100927.84;5102806;28;20031;-65
2021/09/27 02:03:00;;;;;;;3.42;1.40;;;;;;;13.48;68.75;100933.06;5102967;28;20443;-66
2021/09/27 02:05:44;;;;;;;3.43;1.20;;;;;;;13.40;68.67;100935.75;5102798;28;20031;-64
2021/09/27 02:08:30;;;;;;;4.97;1.30;;;;;;;13.19;69.21;100916.88;5102548;28;20027;-64
2021/09/27 02:11:16;;;;;;;4.78;1.42;;;;;;;13.21;69.50;100928.13;5102765;28;20032;-65
2021/09/27 02:13:55;;;;;;;5.50;1.33;;;;;;;13.19;69.60;100921.22;5102572;28;20065;-64
2021/09/27 02:16:39;;;;;;;2.28;1.20;;;;;;;13.26;69.67;100928.06;5102840;28;20024;-64
2021/09/27 02:19:22;;;;;;;8.50;1.60;;;;;;;13.27;69.13;100932.44;5102630;28;20047;-63
2021/09/27 02:21:51;;;;;;;6.47;2.40;;;;;;;13.12;69.85;100925.63;5105189;28;20024;-63
2021/09/27 02:24:41;;;;;;;1.20;0.93;;;;;;;13.25;69.67;100940.25;5087883;28;20051;-64
2021/09/27 02:27:07;;;;;;;6.90;1.88;;;;;;;13.09;70.13;100934.34;5106531;28;20028;-64
2021/09/27 02:29:33;;;;;;;5.35;1.13;;;;;;;13.25;69.73;100931.56;5106189;28;20097;-63
2021/09/27 02:32:16;;;;;;;9.93;1.67;;;;;;;13.14;70.06;100942.13;5106020;28;20107;-63
2021/09/27 02:34:50;;;;;;;15.68;1.75;;;;;;;13.62;68.63;100931.19;5106268;28;20080;-64
2021/09/27 02:37:58;;;;;;;5.85;1.05;;;;;;;13.59;68.74;100935.56;5105974;28;20054;-66
2021/09/27 02:40:51;;;;;;;1.20;0.75;;;;;;;13.57;68.71;100925.16;5083662;28;20027;-66
2021/09/27 02:43:17;;;;;;;7.60;1.45;;;;;;;13.46;69.17;100943.50;5105766;28;20024;-64
2021/09/27 02:45:45;;;;;;;5.07;1.05;;;;;;;13.22;69.91;100937.69;5106129;28;20080;-64
2021/09/27 02:48:14;;;;;;;3.85;1.58;;;;;;;13.34;69.76;100935.84;5105677;28;20035;-64
2021/09/27 02:50:46;;;;;;;5.15;1.05;;;;;;;13.33;69.82;100932.34;5105839;28;20024;-64
2021/09/27 02:53:12;;;;;;;4.38;1.10;;;;;;;13.34;69.73;100936.69;5105331;28;20040;-64
2021/09/27 02:55:57;;;;;;;4.78;1.15;;;;;;;13.46;69.17;100929.59;5105751;28;20028;-64
2021/09/27 02:58:28;;;;;;;1.70;1.58;;;;;;;13.44;69.12;100926.13;5105361;28;20430;-64
2021/09/27 03:00:56;;;;;;;3.30;0.90;;;;;;;13.67;68.70;100928.50;5105523;28;20037;-68
2021/09/27 03:03:30;;;;;;;4.28;1.50;;;;;;;13.44;69.16;100920.91;5105350;28;20022;-63
2021/09/27 03:06:18;;;;;;;2.28;1.08;;;;;;;13.41;69.32;100914.00;5087297;28;20024;-64
2021/09/27 03:09:03;;;;;;;4.05;1.30;;;;;;;13.21;70.10;100919.47;5105223;28;20020;-64
2021/09/27 03:11:53;;;;;;;4.55;1.52;;;;;;;13.35;69.65;100921.91;5105323;28;20110;-66
2021/09/27 03:15:07;;;;;;;5.60;1.60;;;;;;;13.41;69.58;100919.22;5105362;28;20091;-66
2021/09/27 03:17:51;;;;;;;5.78;2.00;;;;;;;13.19;70.51;100914.25;5086210;28;20028;-66
2021/09/27 03:20:27;;;;;;;2.63;1.25;;;;;;;13.21;70.08;100909.88;5105335;28;20080;-67
2021/09/27 03:22:53;;;;;;;1.58;0.82;;;;;;;13.31;69.90;100915.84;5104752;28;20020;-65
2021/09/27 03:25:33;;;;;;;1.75;0.90;;;;;;;13.37;69.85;100925.38;5104707;28;20052;-65
2021/09/27 03:27:59;;;;;;;3.25;1.30;;;;;;;13.46;69.26;100925.25;5105305;28;20020;-66
2021/09/27 03:30:39;;;;;;;3.05;1.10;;;;;;;13.17;70.39;100917.75;5086692;28;20400;-66
2021/09/27 03:33:33;;;;;;;6.78;1.98;;;;;;;13.20;70.34;100920.31;5103991;28;20031;-67
2021/09/27 03:35:59;;;;;;;3.33;1.40;;;;;;;13.01;70.87;100923.13;5086646;28;20023;-66
2021/09/27 03:38:34;;;;;;;7.60;1.45;;;;;;;13.09;70.59;100920.44;5104760;28;20115;-66
2021/09/27 03:41:24;;;;;;;3.38;1.13;;;;;;;13.16;70.32;100908.22;5104746;28;20057;-67
2021/09/27 03:44:11;;;;;;;4.95;1.40;;;;;;;12.87;71.27;100910.25;5104790;28;20170;-65
2021/09/27 03:46:45;;;;;;;2.78;0.77;;;;;;;13.00;70.87;100908.38;5104824;28;20028;-67
2021/09/27 03:49:17;;;;;;;5.00;1.70;;;;;;;12.93;70.92;100912.78;5104659;28;20047;-65
2021/09/27 03:51:53;;;;;;;10.10;1.38;;;;;;;13.02;70.32;100899.66;5104520;28;20024;-67
2021/09/27 03:54:31;;;;;;;3.28;1.23;;;;;;;13.01;70.89;100899.66;5104552;28;20048;-68
2021/09/27 03:57:03;;;;;;;5.07;1.50;;;;;;;12.64;71.92;100901.78;5104619;28;20039;-65
2021/09/27 03:59:44;;;;;;;2.45;0.98;;;;;;;12.84;71.23;100905.06;5104346;28;20517;-66
2021/09/27 04:02:10;;;;;;;1.55;0.95;;;;;;;12.92;70.84;100900.66;5086086;28;20104;-67
2021/09/27 04:05:01;;;;;;;2.25;1.05;;;;;;;12.81;71.26;100910.31;5104363;28;20032;-68
2021/09/27 04:07:32;;;;;;;4.55;1.40;;;;;;;12.58;71.66;100896.63;5104124;28;20032;-65
2021/09/27 04:10:18;;;;;;;1.63;1.02;;;;;;;12.74;71.12;100888.66;5104149;28;20020;-65
2021/09/27 04:12:53;;;;;;;6.72;1.50;;;;;;;12.44;72.25;100875.91;5104033;28;20034;-66
2021/09/27 04:15:27;;;;;;;7.20;1.90;;;;;;;12.22;72.87;100889.09;5103967;28;20047;-65
2021/09/27 04:18:11;;;;;;;1.67;1.25;;;;;;;12.57;71.83;100886.22;5085507;28;20024;-67
2021/09/27 04:21:01;;;;;;;7.70;1.73;;;;;;;12.34;72.20;100888.13;5104037;28;20559;-65
2021/09/27 04:23:40;;;;;;;4.40;1.13;;;;;;;12.30;72.58;100886.41;5103509;28;20065;-68
2021/09/27 04:26:23;;;;;;;9.30;2.00;;;;;;;12.22;72.76;100883.03;5103953;28;20030;-62
2021/09/27 04:29:30;;;;;;;3.92;1.27;;;;;;;12.25;72.79;100878.66;5104142;28;20016;-65
2021/09/27 04:32:19;;;;;;;2.97;1.23;;;;;;;12.37;72.42;100880.31;5103836;28;20024;-73
2021/09/27 04:34:53;;;;;;;4.95;1.55;;;;;;;12.23;72.97;100882.16;5103929;28;20043;-71
2021/09/27 04:37:21;;;;;;;5.63;2.10;;;;;;;12.05;73.41;100891.78;5103459;28;20082;-67
2021/09/27 04:39:48;;;;;;;5.18;1.90;;;;;;;12.24;72.94;100883.88;5103659;28;20044;-66
2021/09/27 04:42:41;;;;;;;5.30;1.70;;;;;;;12.25;72.88;100885.63;5103490;28;20020;-67
2021/09/27 04:45:51;;;;;;;10.85;2.40;;;;;;;12.26;73.16;100888.19;5085429;28;20376;-67
2021/09/27 04:48:25;;;;;;;5.82;1.60;;;;;;;12.35;72.64;100886.38;5021025;28;20355;-68
2021/09/27 04:51:09;;;;;;;3.63;1.80;;;;;;;12.27;72.89;100889.03;5020792;28;20033;-68
2021/09/27 04:53:50;;;;;;;4.75;1.65;;;;;;;12.08;73.29;100883.97;5020891;28;20093;-65
2021/09/27 04:56:37;;;;;;;3.97;1.85;;;;;;;12.12;73.54;100900.44;5020980;28;20033;-65
2021/09/27 04:59:17;;;;;;;1.73;0.90;;;;;;;12.33;72.83;100881.19;5021006;28;20041;-66
2021/09/27 05:01:51;;;;;;;1.83;1.02;;;;;;;12.13;73.63;100884.81;5020891;28;20033;-68
2021/09/27 05:04:39;;;;;;;7.07;1.40;;;;;;;12.19;73.54;100872.66;5020698;28;20044;-68
2021/09/27 05:07:04;;;;;;;4.88;1.88;;;;;;;12.14;73.68;100881.34;5021012;28;20028;-67
2021/09/27 05:09:58;;;;;;;6.07;1.77;;;;;;;11.98;74.32;100883.16;5021000;28;20030;-70
2021/09/27 05:12:33;;;;;;;2.92;1.77;;;;;;;12.02;74.31;100886.59;5020800;28;20045;-67
2021/09/27 05:15:18;;;;;;;3.75;1.45;;;;;;;11.98;74.63;100887.50;5004464;28;20049;-67
2021/09/27 05:17:58;;;;;;;8.07;2.40;;;;;;;11.88;74.93;100882.38;5020562;28;20038;-65
2021/09/27 05:20:40;;;;;;;4.00;2.20;;;;;;;12.09;74.69;100883.09;5020563;28;20053;-65
2021/09/27 05:23:11;;;;;;;3.38;1.52;;;;;;;12.07;74.93;100881.34;5020352;28;20066;-67
2021/09/27 05:25:53;;;;;;;6.00;2.53;;;;;;;11.99;75.21;100878.81;5100887;28;20036;-65
2021/09/27 05:28:32;;;;;;;1.80;1.33;;;;;;;12.26;74.74;100883.00;5103158;28;20024;-68
2021/09/27 05:31:21;;;;;;;7.15;1.90;;;;;;;12.23;74.76;100876.94;5103297;28;20116;-65
2021/09/27 05:34:03;;;;;;;3.80;2.25;;;;;;;12.19;75.29;100873.50;5103212;28;20172;-65
2021/09/27 05:36:28;;;;;;;6.40;2.05;;;;;;;12.18;75.46;100873.50;5103435;28;20024;-66
2021/09/27 05:39:19;;;;;;;5.95;2.60;;;;;;;12.48;74.53;100868.91;5102826;28;20402;-67
2021/09/27 05:42:07;;;;;;;5.50;2.05;;;;;;;12.27;75.57;100865.63;5085240;28;20021;-66
2021/09/27 05:44:58;;;;;;;2.35;1.23;;;;;;;12.57;74.41;100855.81;5084975;28;20027;-67
2021/09/27 05:47:59;;;;;;;7.05;2.50;;;;;;;12.54;74.48;100861.03;5103012;28;20020;-66
2021/09/27 05:51:04;;;;;;;5.55;1.90;;;;;;;12.54;75.05;100855.00;5000591;28;20038;-67
2021/09/27 05:53:46;;;;;;;6.57;2.40;;;;;;;12.82;74.01;100850.38;4962062;28;20038;-66
2021/09/27 05:56:27;;;;;;;3.88;2.10;;;;;;;12.74;74.59;100852.19;4963338;28;20047;-66
2021/09/27 05:59:09;;;;;;;3.95;2.25;;;;;;;12.91;74.21;100851.16;4965723;29;20035;-66
2021/09/27 06:01:47;;;;;;;4.28;2.20;;;;;;;12.84;74.42;100855.56;4965782;29;20058;-66
2021/09/27 06:04:34;;;;;;;9.77;2.38;;;;;;;12.87;74.75;100851.19;4965737;29;20047;-67
2021/09/27 06:07:18;;;;;;;8.20;2.75;;;;;;;12.78;75.19;100843.44;4965878;29;20076;-66
2021/09/27 06:10:01;;;;;;;6.40;2.97;;;;;;;12.94;75.21;100848.50;4965587;29;20046;-66
2021/09/27 06:12:39;;;;;;;8.70;2.83;;;;;;;12.98;74.84;100842.38;4965351;29;20094;-67
2021/09/27 06:15:09;;;;;;;9.65;2.22;;;;;;;13.01;75.13;100843.22;4965618;29;20094;-70
2021/09/27 06:18:11;;;;;;;3.45;1.63;;;;;;;13.22;74.50;100851.66;4965454;29;20041;-66
2021/09/27 06:20:42;;;;;;;5.50;2.50;;;;;;;13.23;75.02;100848.16;4965356;28;20419;-66
2021/09/27 06:23:35;;;;;;;10.73;3.92;;;;;;;13.12;75.43;100840.47;4966441;28;20069;-65
2021/09/27 06:26:07;;;;;;;7.65;2.05;;;;;;;13.56;73.95;100837.31;5004094;28;20030;-66
2021/09/27 06:28:50;;;;;;;6.25;2.45;;;;;;;13.30;74.92;100846.34;5101823;28;20087;-66
2021/09/27 06:31:36;;;;;;;3.15;1.73;;;;;;;13.60;74.16;100843.34;5106787;28;20023;-66
2021/09/27 06:34:05;;;;;;;6.93;3.13;;;;;;;13.26;75.38;100844.63;5106156;28;20024;-65
2021/09/27 06:36:33;;;;;;;5.70;3.22;;;;;;;13.22;76.01;100848.19;5106272;28;20064;-67
2021/09/27 06:39:01;;;;;;;10.75;2.90;;;;;;;13.36;75.27;100837.56;5105988;28;20106;-66
2021/09/27 06:41:32;;;;;;;7.63;3.30;;;;;;;13.32;75.70;100838.50;5106088;28;20032;-67
2021/09/27 06:43:57;;;;;;;11.03;3.13;;;;;;;13.42;75.65;100844.47;5106007;28;20483;-66
2021/09/27 06:46:23;;;;;;;9.50;3.40;;;;;;;13.49;75.61;100833.03;5106033;28;20030;-67
2021/09/27 06:48:50;;;;;;;8.27;2.97;;;;;;;13.65;74.83;100840.69;5105977;28;20044;-66
2021/09/27 06:51:16;;;;;;;1.67;1.05;;;;;;;13.91;74.51;100834.22;5106039;28;20028;-69
2021/09/27 06:53:43;;;;;;;9.35;4.03;;;;;;;13.59;75.46;100841.66;5105854;28;20024;-67
2021/09/27 06:56:08;;;;;;;8.45;3.65;;;;;;;13.80;74.88;100840.44;5105931;28;20028;-68
2021/09/27 06:58:33;;;;;;;8.27;3.60;;;;;;;13.84;74.87;100846.50;5105939;28;20050;-68
2021/09/27 07:00:59;;;;;;;4.72;1.90;;;;;;;13.96;74.53;100827.19;5106011;28;20058;-70
2021/09/27 07:03:25;;;;;;;11.30;3.05;;;;;;;13.98;74.10;100833.22;5105775;28;20028;-68
2021/09/27 07:05:51;;;;;;;8.55;3.53;;;;;;;13.94;74.53;100829.81;5105641;28;20024;-67
2021/09/27 07:08:19;;;;;;;5.00;2.72;;;;;;;13.96;74.60;100827.19;5105569;28;20023;-68
2021/09/27 07:10:45;;;;;;;5.93;2.42;;;;;;;14.25;73.85;100823.22;5105532;28;20023;-71
2021/09/27 07:13:13;;;;;;;3.13;1.83;;;;;;;14.15;74.01;100822.53;5105307;28;20040;-68
2021/09/27 07:15:39;;;;;;;6.88;3.65;;;;;;;14.08;74.00;100823.50;5105401;28;20024;-68
2021/09/27 07:18:04;;;;;;;10.95;4.20;;;;;;;14.09;74.13;100820.03;5105317;28;20028;-68
2021/09/27 07:20:30;;;;;;;8.52;3.70;;;;;;;14.02;74.97;100823.59;5105427;28;20035;-67
2021/09/27 07:22:56;;;;;;;6.72;3.38;;;;;;;14.12;74.40;100818.22;5104951;28;20338;-67
2021/09/27 07:25:23;;;;;;;5.93;2.38;;;;;;;14.46;73.69;100808.06;5105146;28;20341;-69
2021/09/27 07:27:48;;;;;;;8.80;3.47;;;;;;;14.47;72.84;100820.25;5105158;28;20027;-67
2021/09/27 07:30:14;;;;;;;7.40;3.65;;;;;;;14.45;72.88;100811.56;5105155;28;20019;-68
2021/09/27 07:32:41;;;;;;;7.43;3.05;;;;;;;14.54;72.89;100823.59;5104943;28;20028;-67
2021/09/27 07:35:09;;;;;;;4.60;2.53;;;;;;;14.48;73.07;100816.75;5105087;28;20024;-68
2021/09/27 07:37:37;;;;;;;2.75;2.05;;;;;;;14.29;73.86;100813.59;5104765;28;20111;-68
2021/09/27 07:40:03;;;;;;;7.70;2.40;;;;;;;14.39;73.71;100815.16;5104781;28;20365;-68
2021/09/27 07:42:28;;;;;;;11.77;3.88;;;;;;;14.31;74.02;100812.69;5104602;28;20027;-67
2021/09/27 07:44:54;;;;;;;8.68;4.35;;;;;;;14.24;74.56;100818.91;5104681;28;20470;-67
2021/09/27 07:47:19;;;;;;;10.18;4.03;;;;;;;14.30;74.38;100821.41;5104550;28;20339;-66
2021/09/27 07:49:44;;;;;;;5.47;2.85;;;;;;;14.59;73.29;100819.16;5104588;28;20046;-69
2021/09/27 07:52:10;;;;;;;7.43;3.65;;;;;;;14.40;74.01;100818.63;5104554;28;20024;-68
2021/09/27 07:54:38;;;;;;;10.90;4.03;;;;;;;14.41;74.39;100809.91;5104612;28;20062;-67
2021/09/27 07:57:04;;;;;;;4.82;2.20;;;;;;;14.61;73.28;100812.16;5104726;28;20379;-68
2021/09/27 07:59:29;;;;;;;6.93;3.28;;;;;;;14.23;74.81;100815.41;5104570;28;20039;-65
2021/09/27 08:01:54;;;;;;;1.02;0.55;;;;;;;14.53;74.56;100808.81;5104358;28;20024;-67
2021/09/27 08:04:20;;;;;;;9.15;3.05;;;;;;;14.43;74.57;100814.22;5104442;28;20031;-68
2021/09/27 08:06:45;;;;;;;7.55;3.63;;;;;;;14.25;75.48;100807.56;5104282;28;20020;-67
2021/09/27 08:09:10;;;;;;;11.88;4.90;;;;;;;14.18;75.77;100805.94;5104367;28;20043;-68
2021/09/27 08:11:40;;;;;;;9.73;4.40;;;;;;;14.07;76.85;100803.53;5104330;28;20028;-69
2021/09/27 08:14:06;;;;;;;11.25;4.82;;;;;;;14.16;76.50;100789.44;5104249;28;20047;-66
2021/09/27 08:16:31;;;;;;;8.70;5.20;;;;;;;14.05;77.40;100793.09;5104200;28;20024;-66
2021/09/27 08:18:57;;;;;;;6.68;3.70;;;;;;;14.19;77.36;100777.19;5103874;28;20024;-65
2021/09/27 08:21:22;;;;;;;11.02;3.33;;;;;;;14.31;77.29;100788.31;5104309;28;20446;-66
2021/09/27 08:23:48;;;;;;;8.70;4.50;;;;;;;14.27;77.42;100786.63;5103883;28;20048;-67
2021/09/27 08:26:14;;;;;;;6.50;3.13;;;;;;;14.35;77.68;100785.63;5104154;28;20123;-71
2021/09/27 08:28:42;;;;;;;8.10;3.92;;;;;;;14.57;76.89;100779.16;5104267;28;20039;-68
2021/09/27 08:31:17;;;;;;;7.75;4.00;;;;;;;14.56;77.47;100773.03;5104186;28;20038;-68
2021/09/27 08:33:43;;;;;;;4.47;2.17;;;;;;;14.67;77.15;100782.41;5104068;28;20027;-68
2021/09/27 08:36:12;;;;;;;6.22;3.38;;;;;;;14.74;76.69;100779.66;5103955;28;20024;-68
2021/09/27 08:38:38;;;;;;;10.07;5.45;;;;;;;14.73;76.88;100771.84;5085108;28;20487;-67
2021/09/27 08:41:24;;;;;;;9.25;3.88;;;;;;;14.73;77.16;100774.44;5085320;28;20088;-70
2021/09/27 08:44:02;;;;;;;3.80;2.40;;;;;;;14.91;76.54;100769.78;5061862;28;20036;-67
2021/09/27 08:46:38;;;;;;;9.65;6.10;;;;;;;14.66;77.63;100780.69;5103846;28;20107;-66
2021/09/27 08:49:28;;;;;;;7.57;3.45;;;;;;;14.81;77.37;100783.03;5103920;28;20081;-67
2021/09/27 08:51:54;;;;;;;5.20;3.50;;;;;;;14.78;77.23;100774.34;5103929;28;20099;-67
2021/09/27 08:54:24;;;;;;;9.63;5.38;;;;;;;14.93;76.47;100765.38;5103896;28;20463;-68
2021/09/27 08:56:57;;;;;;;7.50;3.97;;;;;;;15.10;76.29;100765.03;5103522;28;20028;-69
2021/09/27 08:59:29;;;;;;;7.82;4.28;;;;;;;15.32;75.37;100768.03;5103727;28;20024;-69
2021/09/27 09:02:38;;;;;;;10.98;4.22;;;;;;;15.51;75.03;100757.13;5103825;28;20035;-68
2021/09/27 09:05:22;;;;;;;3.97;2.65;;;;;;;15.93;73.45;100761.38;5093815;28;20070;-69
2021/09/27 09:08:02;;;;;;;4.28;3.13;;;;;;;16.08;72.04;100752.31;5103504;28;20035;-65
2021/09/27 09:10:42;;;;;;;5.57;2.67;;;;;;;16.14;72.05;100760.88;5103638;28;20020;-67
2021/09/27 09:13:13;;;;;;;8.88;3.55;;;;;;;16.05;72.58;100762.84;5103536;28;20034;-69
2021/09/27 09:15:40;;;;;;;8.85;3.95;;;;;;;16.26;71.77;100754.47;5085441;28;20027;-70
2021/09/27 09:18:17;;;;;;;6.03;3.75;;;;;;;16.30;71.43;100762.22;5103293;28;20069;-67
2021/09/27 09:20:53;;;;;;;8.00;4.70;;;;;;;16.03;72.76;100754.19;5103692;28;20035;-68
2021/09/27 09:23:33;;;;;;;10.82;2.85;;;;;;;16.48;70.71;100760.00;5103148;28;20028;-70
2021/09/27 09:26:03;;;;;;;9.88;5.13;;;;;;;16.45;71.15;100778.41;5103491;28;20035;-70
2021/09/27 09:28:29;;;;;;;10.18;4.72;;;;;;;16.55;71.91;100779.88;5103610;28;20045;-68
2021/09/27 09:31:20;;;;;;;10.05;4.85;;;;;;;17.30;69.02;100763.78;5104287;28;20028;-68
2021/09/27 09:33:50;;;;;;;6.75;3.22;;;;;;;17.38;68.90;100764.38;5107365;28;20023;-68
2021/09/27 09:36:35;;;;;;;8.25;4.60;;;;;;;17.55;69.04;100763.88;5107292;28;20024;-69
2021/09/27 09:39:11;;;;;;;9.25;2.78;;;;;;;18.58;63.83;100755.16;5107571;28;20039;-69
2021/09/27 09:41:49;;;;;;;8.00;2.72;;;;;;;18.79;63.49;100772.84;5107295;28;20043;-67
2021/09/27 09:44:48;;;;;;;4.80;2.58;;;;;;;19.10;61.74;100753.31;5107540;28;20020;-69
2021/09/27 09:47:29;;;;;;;10.20;4.63;;;;;;;18.98;63.97;100783.53;5102958;28;20047;-68
2021/09/27 09:49:57;;;;;;;6.55;3.38;;;;;;;19.77;60.82;100755.91;5107794;28;20051;-69
2021/09/27 09:52:24;;;;;;;8.00;4.03;;;;;;;19.79;60.39;100767.22;5107204;28;20038;-67
2021/09/27 09:54:51;;;;;;;9.23;4.70;;;;;;;19.34;61.44;100760.28;5107162;28;20106;-69
2021/09/27 09:57:24;;;;;;;7.38;3.88;;;;;;;19.79;61.62;100775.13;5107593;28;20529;-67
2021/09/27 10:00:14;;;;;;;7.38;3.90;;;;;;;20.10;60.01;100769.50;5106898;28;20032;-67
2021/09/27 10:02:42;;;;;;;7.68;4.40;;;;;;;19.92;59.97;100767.56;5106943;28;20023;-68
2021/09/27 10:05:48;;;;;;;9.68;4.75;;;;;;;19.59;60.42;100764.56;5106876;28;20031;-67
2021/09/27 10:08:17;;;;;;;5.82;2.88;;;;;;;19.00;61.33;100773.81;5106079;28;20032;-71
2021/09/27 10:10:54;;;;;;;9.40;5.47;;;;;;;18.47;63.63;100773.09;5107850;28;20211;-68
2021/09/27 10:13:27;;;;;;;6.55;3.58;;;;;;;18.25;64.56;100758.09;5106805;28;20027;-68
2021/09/27 10:15:53;;;;;;;11.80;5.15;;;;;;;18.06;65.35;100774.47;5106937;28;20023;-66
2021/09/27 10:18:27;;;;;;;1.77;1.30;;;;;;;18.38;65.07;100769.03;5106781;28;20297;-69
2021/09/27 10:21:18;;;;;;;10.98;4.80;;;;;;;18.56;64.87;100777.19;5106773;28;20035;-67
2021/09/27 10:23:48;;;;;;;3.90;2.63;;;;;;;18.81;63.90;100750.84;5106314;28;20036;-68
2021/09/27 10:26:27;;;;;;;6.35;3.75;;;;;;;19.03;63.76;100752.63;5106448;28;20035;-67
2021/09/27 10:28:56;;;;;;;8.20;4.40;;;;;;;19.38;62.92;100753.97;5106473;28;20012;-67
2021/09/27 10:31:23;;;;;;;7.35;3.85;;;;;;;19.95;60.71;100748.16;5088156;28;20031;-68
2021/09/27 10:34:02;;;;;;;5.97;2.53;;;;;;;20.13;60.37;100748.28;5106230;28;20024;-67
2021/09/27 10:36:35;;;;;;;5.13;3.10;;;;;;;20.60;58.88;100756.81;5105978;28;20052;-68
2021/09/27 10:39:04;;;;;;;7.55;3.30;;;;;;;20.38;57.74;100739.31;5105805;28;20130;-72
2021/09/27 10:41:35;;;;;;;7.97;3.95;;;;;;;19.53;60.53;100750.75;5105583;28;20531;-68
2021/09/27 10:44:14;;;;;;;6.60;2.73;;;;;;;19.19;61.53;100754.69;5106097;28;20031;-66
2021/09/27 10:46:42;;;;;;;8.45;5.10;;;;;;;18.80;62.86;100762.25;5105813;28;20038;-67
2021/09/27 10:49:24;;;;;;;8.15;4.75;;;;;;;18.83;63.67;100763.94;5106026;28;20084;-67
2021/09/27 10:52:11;;;;;;;5.88;3.22;;;;;;;18.90;63.50;100756.66;5106188;28;20034;-68
2021/09/27 10:54:57;;;;;;;6.35;1.88;;;;;;;18.79;63.13;100755.28;5105774;28;20502;-68
2021/09/27 10:57:31;;;;;;;6.55;3.65;;;;;;;18.44;64.90;100754.81;5105893;28;20027;-68
2021/09/27 11:00:02;;;;;;;6.55;3.78;;;;;;;18.38;65.17;100774.28;5105798;28;20024;-68
2021/09/27 11:02:43;;;;;;;4.47;2.63;;;;;;;18.53;64.34;100772.88;5105370;28;20032;-67
2021/09/27 11:05:18;;;;;;;5.00;3.60;;;;;;;18.44;64.77;100760.06;5105742;28;20034;-69
2021/09/27 11:07:49;;;;;;;7.10;3.35;;;;;;;18.35;65.32;100756.00;5105457;28;20503;-68
2021/09/27 11:10:38;;;;;;;4.53;2.65;;;;;;;18.43;65.19;100755.72;5105624;28;20023;-68
2021/09/27 11:13:03;;;;;;;6.65;4.53;;;;;;;18.61;65.87;100753.34;5092537;28;20035;-68
2021/09/27 11:15:33;;;;;;;5.85;3.95;;;;;;;19.36;63.37;100734.75;5105599;28;20054;-67
2021/09/27 11:18:12;;;;;;;9.88;4.63;;;;;;;19.60;62.78;100738.16;5105371;28;20020;-68
2021/09/27 11:20:50;;;;;;;5.47;3.50;;;;;;;19.80;60.80;100733.84;5105782;28;20045;-69
2021/09/27 11:23:38;;;;;;;8.20;3.13;;;;;;;19.59;60.88;100735.59;5105077;28;20387;-69
2021/09/27 11:26:18;;;;;;;7.15;3.33;;;;;;;19.32;62.41;100731.38;5105368;28;20030;-68
2021/09/27 11:29:14;;;;;;;9.10;4.18;;;;;;;19.24;62.60;100729.06;5105333;28;20020;-71
2021/09/27 11:31:42;;;;;;;7.75;4.40;;;;;;;19.23;62.78;100739.66;5105512;28;20095;-70
2021/09/27 11:34:43;;;;;;;6.40;2.65;;;;;;;19.33;62.32;100717.31;5104998;28;20038;-71
2021/09/27 11:37:14;;;;;;;5.57;3.37;;;;;;;19.15;62.62;100721.53;5105070;28;20459;-68
2021/09/27 11:39:45;;;;;;;5.43;2.77;;;;;;;19.19;63.28;100723.13;5104672;28;20330;-69
2021/09/27 11:42:29;;;;;;;7.93;4.35;;;;;;;19.11;63.61;100704.13;5105034;28;20026;-67
2021/09/27 11:45:12;;;;;;;6.43;3.75;;;;;;;19.14;63.45;100709.28;5105012;28;20070;-68
2021/09/27 11:47:41;;;;;;;8.98;4.50;;;;;;;19.13;63.52;100704.94;5105224;28;20031;-68
2021/09/27 11:50:14;;;;;;;3.60;2.17;;;;;;;19.32;63.30;100687.50;5104946;28;20020;-69
2021/09/27 11:52:57;;;;;;;3.33;2.30;;;;;;;19.49;62.11;100690.38;5104623;28;20032;-69
2021/09/27 11:55:36;;;;;;;3.22;2.40;;;;;;;19.59;61.00;100686.41;5104468;28;20028;-71
2021/09/27 11:58:22;;;;;;;8.52;4.28;;;;;;;19.13;62.90;100702.31;5104789;28;20016;-68
2021/09/27 12:00:56;;;;;;;7.50;4.03;;;;;;;19.38;62.52;100685.53;5104777;28;20024;-69
2021/09/27 12:03:43;;;;;;;3.70;2.63;;;;;;;19.61;61.54;100675.81;5104546;28;20024;-72
2021/09/27 12:06:28;;;;;;;5.10;2.28;;;;;;;19.47;61.41;100694.84;5104441;28;20051;-69
2021/09/27 12:09:00;;;;;;;4.60;2.60;;;;;;;19.34;62.36;100699.75;5104362;28;20019;-68
2021/09/27 12:11:27;;;;;;;10.88;4.70;;;;;;;19.25;62.29;100688.66;5104546;28;20563;-66
2021/09/27 12:13:55;;;;;;;6.22;2.95;;;;;;;19.29;62.59;100692.91;5104239;28;20056;-68
2021/09/27 12:16:30;;;;;;;7.47;4.18;;;;;;;19.31;62.05;100691.03;5104412;28;20035;-69